createdAt,value
2022-11-03T00:01:04.851Z,7.77
2022-11-03T00:03:31.547Z,7.75
2022-11-03T00:06:07.504Z,7.73
2022-11-03T00:08:37.058Z,7.72
2022-11-03T00:11:05.581Z,7.71
2022-11-03T00:13:32.357Z,7.63
2022-11-03T00:15:59.135Z,7.58
2022-11-03T00:18:25.841Z,7.54
2022-11-03T00:21:03.705Z,7.51
2022-11-03T00:23:32.998Z,7.48
2022-11-03T00:26:14.320Z,7.46
2022-11-03T00:28:42.463Z,7.40
2022-11-03T00:31:34.115Z,7.31
2022-11-03T00:34:01.818Z,7.28
2022-11-03T00:36:30.933Z,7.27
2022-11-03T00:38:57.944Z,7.25
2022-11-03T00:41:25.837Z,7.23
2022-11-03T00:43:52.979Z,7.23
2022-11-03T00:46:20.663Z,7.21
2022-11-03T00:48:47.732Z,7.19
2022-11-03T00:51:18.839Z,7.16
2022-11-03T00:53:56.692Z,7.14
2022-11-03T00:56:26.018Z,7.18
2022-11-03T00:58:53.747Z,7.27
2022-11-03T01:01:25.634Z,7.33
2022-11-03T01:04:13.019Z,7.35
2022-11-03T01:06:51.540Z,7.35
2022-11-03T01:09:20.516Z,7.37
2022-11-03T01:12:00.899Z,7.32
2022-11-03T01:14:38.468Z,7.27
2022-11-03T01:17:13.612Z,7.27
2022-11-03T01:19:40.319Z,7.26
2022-11-03T01:22:10.633Z,7.23
2022-11-03T01:24:38.124Z,7.12
2022-11-03T01:27:04.782Z,7.16
2022-11-03T01:29:31.490Z,7.22
2022-11-03T01:31:58.385Z,7.24
2022-11-03T01:34:25.148Z,7.25
2022-11-03T01:36:51.812Z,7.27
2022-11-03T01:39:19.470Z,7.24
2022-11-03T01:41:48.313Z,7.29
2022-11-03T01:44:14.955Z,7.20
2022-11-03T01:47:03.366Z,7.22
2022-11-03T01:49:35.275Z,7.29
2022-11-03T01:52:08.102Z,7.23
2022-11-03T01:54:37.991Z,7.19
2022-11-03T01:57:08.673Z,7.22
2022-11-03T01:59:36.163Z,7.25
2022-11-03T02:02:03.286Z,7.18
2022-11-03T02:04:32.430Z,7.25
2022-11-03T02:07:15.883Z,7.26
2022-11-03T02:09:42.579Z,7.27
2022-11-03T02:12:10.264Z,7.26
2022-11-03T02:14:45.829Z,7.19
2022-11-03T02:17:14.171Z,7.14
2022-11-03T02:20:00.091Z,7.06
2022-11-03T02:23:04.784Z,7.09
2022-11-03T02:25:31.609Z,7.07
2022-11-03T02:27:59.076Z,7.08
2022-11-03T02:30:28.163Z,7.09
2022-11-03T02:32:59.355Z,7.14
2022-11-03T02:35:57.039Z,7.12
2022-11-03T02:38:26.134Z,7.07
2022-11-03T02:40:54.805Z,7.08
2022-11-03T02:43:22.566Z,7.13
2022-11-03T02:45:50.471Z,7.15
2022-11-03T02:48:18.435Z,7.15
2022-11-03T02:50:45.313Z,7.12
2022-11-03T02:53:13.522Z,7.11
2022-11-03T02:56:11.712Z,7.09
2022-11-03T02:58:53.262Z,7.10
2022-11-03T03:01:47.476Z,6.99
2022-11-03T03:04:37.693Z,7.05
2022-11-03T03:07:11.238Z,6.99
2022-11-03T03:09:42.133Z,6.99
2022-11-03T03:12:10.698Z,6.95
2022-11-03T03:14:39.138Z,7.04
2022-11-03T03:17:17.427Z,6.96
2022-11-03T03:20:00.194Z,6.96
2022-11-03T03:22:39.557Z,6.99
2022-11-03T03:25:22.435Z,7.00
2022-11-03T03:27:53.453Z,6.92
2022-11-03T03:30:20.317Z,6.97
2022-11-03T03:32:49.151Z,6.90
2022-11-03T03:35:25.465Z,6.83
2022-11-03T03:37:58.592Z,6.72
2022-11-03T03:40:32.640Z,6.68
2022-11-03T03:43:00.588Z,6.66
2022-11-03T03:45:27.483Z,6.60
2022-11-03T03:47:57.812Z,6.53
2022-11-03T03:50:26.538Z,6.53
2022-11-03T03:53:04.534Z,6.45
2022-11-03T03:55:36.872Z,6.45
2022-11-03T03:58:05.111Z,6.43
2022-11-03T04:00:32.493Z,6.38
2022-11-03T04:02:59.715Z,6.38
2022-11-03T04:05:26.944Z,6.36
2022-11-03T04:07:53.609Z,6.32
2022-11-03T04:10:22.035Z,6.30
2022-11-03T04:13:08.706Z,6.27
2022-11-03T04:16:02.013Z,6.27
2022-11-03T04:18:47.387Z,6.23
2022-11-03T04:21:35.284Z,6.24
2022-11-03T04:24:01.951Z,6.21
2022-11-03T04:26:29.394Z,6.22
2022-11-03T04:28:56.405Z,6.14
2022-11-03T04:31:23.051Z,6.16
2022-11-03T04:33:49.704Z,6.16
2022-11-03T04:36:24.131Z,6.14
2022-11-03T04:38:52.058Z,6.15
2022-11-03T04:41:22.211Z,6.20
2022-11-03T04:43:49.828Z,6.15
2022-11-03T04:46:18.015Z,6.12
2022-11-03T04:48:44.958Z,6.10
2022-11-03T04:51:17.421Z,6.12
2022-11-03T04:53:53.968Z,6.13
2022-11-03T04:56:22.789Z,6.08
2022-11-03T04:58:49.847Z,6.04
2022-11-03T05:01:23.786Z,6.04
2022-11-03T05:03:54.008Z,6.03
2022-11-03T05:06:26.946Z,6.06
2022-11-03T05:08:59.110Z,5.98
2022-11-03T05:11:35.810Z,5.96
2022-11-03T05:14:06.795Z,5.97
2022-11-03T05:16:35.053Z,5.98
2022-11-03T05:19:02.153Z,5.97
2022-11-03T05:21:29.066Z,5.98
2022-11-03T05:23:58.581Z,5.96
2022-11-03T05:26:31.890Z,5.93
2022-11-03T05:29:01.899Z,5.91
2022-11-03T05:31:46.451Z,5.92
2022-11-03T05:34:52.379Z,5.87
2022-11-03T05:37:32.144Z,5.93
2022-11-03T05:40:01.066Z,5.91
2022-11-03T05:42:42.090Z,5.85
2022-11-03T05:45:26.449Z,5.83
2022-11-03T05:48:01.643Z,5.85
2022-11-03T05:50:31.791Z,5.84
2022-11-03T05:53:21.115Z,5.86
2022-11-03T05:55:49.063Z,5.83
2022-11-03T05:58:32.357Z,5.79
2022-11-03T06:01:02.289Z,5.81
2022-11-03T06:03:33.889Z,5.84
2022-11-03T06:06:04.207Z,5.92
2022-11-03T06:08:39.075Z,5.89
2022-11-03T06:11:10.440Z,5.91
2022-11-03T06:13:38.857Z,5.92
2022-11-03T06:16:31.817Z,5.83
2022-11-03T06:19:01.351Z,5.85
2022-11-03T06:21:29.775Z,5.82
2022-11-03T06:23:56.889Z,5.83
2022-11-03T06:26:28.654Z,5.83
2022-11-03T06:28:56.208Z,5.80
2022-11-03T06:31:31.384Z,5.81
2022-11-03T06:33:58.917Z,5.83
2022-11-03T06:36:38.485Z,5.83
2022-11-03T06:50:44.938Z,5.66
2022-11-03T06:53:12.135Z,5.71
2022-11-03T06:55:40.386Z,5.72
2022-11-03T06:58:38.204Z,5.75
2022-11-03T07:01:25.207Z,5.68
2022-11-03T07:03:56.383Z,5.72
2022-11-03T07:06:25.309Z,5.73
2022-11-03T07:08:54.833Z,5.75
2022-11-03T07:11:26.573Z,5.81
2022-11-03T07:14:33.333Z,5.80
2022-11-03T07:17:02.971Z,5.89
2022-11-03T07:19:35.334Z,5.94
2022-11-03T07:22:08.846Z,5.98
2022-11-03T07:24:47.075Z,6.08
2022-11-03T07:27:22.085Z,6.12
2022-11-03T07:29:49.931Z,6.19
2022-11-03T07:32:19.840Z,6.22
2022-11-03T07:34:48.155Z,6.29
2022-11-03T07:37:18.793Z,6.33
2022-11-03T07:39:45.426Z,6.30
2022-11-03T07:42:21.386Z,6.36
2022-11-03T07:44:50.157Z,6.40
2022-11-03T07:47:27.598Z,6.45
2022-11-03T07:49:55.299Z,6.51
2022-11-03T07:52:24.439Z,6.57
2022-11-03T07:54:52.362Z,6.61
2022-11-03T07:57:22.722Z,6.66
2022-11-03T07:59:51.046Z,6.68
2022-11-03T08:02:45.178Z,6.74
2022-11-03T08:05:12.009Z,6.78
2022-11-03T08:07:39.202Z,6.82
2022-11-03T08:14:04.352Z,6.85
2022-11-03T08:16:31.124Z,6.91
2022-11-03T08:18:57.837Z,6.95
2022-11-03T08:21:24.553Z,6.96
2022-11-03T08:23:51.786Z,7.00
2022-11-03T08:26:18.423Z,7.06
2022-11-03T08:33:03.062Z,7.13
2022-11-03T08:35:33.082Z,7.23
2022-11-03T08:38:01.134Z,7.27
2022-11-03T08:40:27.806Z,7.31
2022-11-03T08:43:23.818Z,7.33
2022-11-03T08:45:54.730Z,7.35
2022-11-03T08:48:27.334Z,7.41
2022-11-03T08:50:55.063Z,7.50
2022-11-03T08:53:26.101Z,7.55
2022-11-03T08:59:30.741Z,7.61
2022-11-03T09:01:57.881Z,7.71
2022-11-03T09:04:24.628Z,7.73
2022-11-03T09:06:51.396Z,7.77
2022-11-03T09:12:05.284Z,7.86
2022-11-03T09:14:31.938Z,7.93
2022-11-03T09:16:58.712Z,7.99
2022-11-03T09:19:25.586Z,8.04
2022-11-03T09:21:52.672Z,8.11
2022-11-03T09:24:19.426Z,8.19
2022-11-03T09:26:46.261Z,8.25
2022-11-03T09:29:13.094Z,8.29
2022-11-03T09:31:39.994Z,8.34
2022-11-03T09:34:06.715Z,8.47
2022-11-03T09:36:33.648Z,8.51
2022-11-03T09:39:00.501Z,8.57
2022-11-03T09:41:45.855Z,8.73
2022-11-03T09:44:14.090Z,8.79
2022-11-03T09:46:41.354Z,8.90
2022-11-03T09:49:08.012Z,8.98
2022-11-03T09:51:35.517Z,9.10
2022-11-03T09:54:04.004Z,9.17
2022-11-03T09:56:31.554Z,9.30
2022-11-03T09:59:01.384Z,9.38
2022-11-03T10:01:28.213Z,9.43
2022-11-03T10:03:59.996Z,9.52
2022-11-03T10:06:26.881Z,9.64
2022-11-03T10:08:53.847Z,9.75
2022-11-03T10:11:20.666Z,9.87
2022-11-03T10:14:28.331Z,9.93
2022-11-03T10:17:00.809Z,10.05
2022-11-03T10:19:27.697Z,10.23
2022-11-03T10:22:00.025Z,10.26
2022-11-03T10:24:26.774Z,10.37
2022-11-03T10:26:56.901Z,10.45
2022-11-03T10:29:28.666Z,10.46
2022-11-03T10:32:30.720Z,10.43
2022-11-03T10:34:58.152Z,10.58
2022-11-03T10:37:26.005Z,10.57
2022-11-03T10:39:54.774Z,10.55
2022-11-03T10:42:30.657Z,10.60
2022-11-03T10:45:17.616Z,10.63
2022-11-03T10:47:44.773Z,10.74
2022-11-03T10:50:21.955Z,10.82
2022-11-03T10:52:49.835Z,10.85
2022-11-03T10:55:20.589Z,10.99
2022-11-03T10:59:07.784Z,11.04
2022-11-03T11:02:43.008Z,11.10
2022-11-03T11:06:06.368Z,11.04
2022-11-03T11:13:21.762Z,11.12
2022-11-03T11:15:56.440Z,11.26
2022-11-03T11:18:29.457Z,11.23
2022-11-03T11:21:00.671Z,11.25
2022-11-03T11:23:27.520Z,11.23
2022-11-03T11:26:09.528Z,11.25
2022-11-03T11:28:37.827Z,11.29
2022-11-03T11:31:22.640Z,11.27
2022-11-03T11:33:52.632Z,11.30
2022-11-03T11:36:24.609Z,11.34
2022-11-03T11:38:55.849Z,11.38
2022-11-03T11:42:01.328Z,11.30
2022-11-03T11:44:58.261Z,11.30
2022-11-03T11:47:45.783Z,11.28
2022-11-03T11:50:53.802Z,11.23
2022-11-03T11:54:10.000Z,11.19
2022-11-03T11:56:47.283Z,11.16
2022-11-03T11:59:39.232Z,11.15
2022-11-03T12:02:59.092Z,11.07
2022-11-03T12:05:31.870Z,11.12
2022-11-03T12:08:02.001Z,11.17
2022-11-03T12:10:32.047Z,11.10
2022-11-03T12:13:00.151Z,11.14
2022-11-03T12:15:52.627Z,11.09
2022-11-03T12:18:29.223Z,11.08
2022-11-03T12:20:55.950Z,11.08
2022-11-03T12:23:41.420Z,11.08
2022-11-03T12:26:27.605Z,11.04
2022-11-03T12:28:59.222Z,11.04
2022-11-03T12:31:33.064Z,11.07
2022-11-03T12:34:02.838Z,11.07
2022-11-03T12:36:30.270Z,11.06
2022-11-03T12:39:02.790Z,11.05
2022-11-03T12:41:30.341Z,11.05
2022-11-03T12:43:58.800Z,11.06
2022-11-03T12:46:31.053Z,11.07
2022-11-03T12:48:57.916Z,11.10
2022-11-03T12:51:25.189Z,11.12
2022-11-03T12:53:52.336Z,11.18
2022-11-03T12:56:19.432Z,11.22
2022-11-03T12:58:46.609Z,11.18
2022-11-03T13:01:18.931Z,11.22
2022-11-03T13:03:48.496Z,11.21
2022-11-03T13:06:15.594Z,11.22
2022-11-03T13:08:42.696Z,11.24
2022-11-03T13:11:29.371Z,11.23
2022-11-03T13:13:56.951Z,11.20
2022-11-03T13:16:23.894Z,11.20
2022-11-03T13:18:50.686Z,11.19
2022-11-03T13:21:17.988Z,11.23
2022-11-03T13:24:05.541Z,11.21
2022-11-03T13:26:32.243Z,11.17
2022-11-03T13:29:08.195Z,11.18
2022-11-03T13:31:47.131Z,11.15
2022-11-03T13:34:25.408Z,11.16
2022-11-03T13:36:54.718Z,11.15
2022-11-03T13:39:21.610Z,11.20
2022-11-03T13:41:51.348Z,11.24
2022-11-03T13:44:21.389Z,11.28
2022-11-03T13:46:48.325Z,11.32
2022-11-03T13:52:09.425Z,11.37
2022-11-03T14:05:14.198Z,11.17
2022-11-03T14:07:40.777Z,11.20
2022-11-03T14:10:07.874Z,11.15
2022-11-03T14:12:36.140Z,11.17
2022-11-03T14:15:05.918Z,11.18
2022-11-03T14:17:33.343Z,11.16
2022-11-03T14:31:41.882Z,10.76
2022-11-03T14:34:08.675Z,10.78
2022-11-03T14:36:35.461Z,10.68
2022-11-03T14:39:02.225Z,10.64
2022-11-03T14:41:47.724Z,10.58
2022-11-03T14:44:14.469Z,10.56
2022-11-03T14:46:41.084Z,10.52
2022-11-03T14:49:09.159Z,10.53
2022-11-03T14:51:35.840Z,10.52
2022-11-03T14:54:02.555Z,10.48
2022-11-03T14:56:29.341Z,10.45
2022-11-03T14:58:56.223Z,10.41
2022-11-03T15:01:23.259Z,10.37
2022-11-03T15:03:49.990Z,10.34
2022-11-03T15:06:16.718Z,10.29
2022-11-03T15:08:43.468Z,10.27
2022-11-03T15:11:10.705Z,10.23
2022-11-03T15:13:41.733Z,10.14
2022-11-03T15:16:12.752Z,10.14
2022-11-03T15:18:39.715Z,10.11
2022-11-03T15:21:06.602Z,10.08
2022-11-03T15:26:20.059Z,10.01
2022-11-03T15:28:49.308Z,9.98
2022-11-03T15:31:16.082Z,9.95
2022-11-03T15:33:42.745Z,9.90
2022-11-03T15:36:09.640Z,9.85
2022-11-03T15:38:36.429Z,9.78
2022-11-03T15:41:19.500Z,9.77
2022-11-03T15:43:48.251Z,9.73
2022-11-03T15:46:18.853Z,9.74
2022-11-03T15:48:46.079Z,9.71
2022-11-03T15:51:12.888Z,9.69
2022-11-03T15:53:40.078Z,9.65
2022-11-03T15:56:07.518Z,9.62
2022-11-03T15:58:34.773Z,9.60
2022-11-03T16:01:05.299Z,9.64
2022-11-03T16:03:32.641Z,9.55
2022-11-03T16:05:59.699Z,9.49
2022-11-03T16:08:28.903Z,9.48
2022-11-03T16:10:58.244Z,9.46
2022-11-03T16:13:25.442Z,9.45
2022-11-03T16:15:54.544Z,9.45
2022-11-03T16:18:21.499Z,9.45
2022-11-03T16:20:48.189Z,9.40
2022-11-03T16:23:14.954Z,9.41
2022-11-03T16:25:41.683Z,9.39
2022-11-03T16:28:08.834Z,9.40
2022-11-03T16:30:35.792Z,9.41
2022-11-03T16:33:02.562Z,9.40
2022-11-03T16:35:29.785Z,9.42
2022-11-03T16:37:56.554Z,9.43
2022-11-03T16:40:23.834Z,9.45
2022-11-03T16:42:50.575Z,9.43
2022-11-03T16:45:22.293Z,9.46
2022-11-03T16:47:50.284Z,9.45
2022-11-03T16:50:18.156Z,9.45
2022-11-03T16:52:46.430Z,9.47
2022-11-03T16:55:15.128Z,9.47
2022-11-03T16:57:45.867Z,9.43
2022-11-03T17:00:16.155Z,9.63
2022-11-03T17:02:43.112Z,10.01
2022-11-03T17:05:10.987Z,10.28
2022-11-03T17:07:37.875Z,10.29
2022-11-03T17:10:05.849Z,10.42
2022-11-03T17:12:32.579Z,10.51
2022-11-03T17:14:59.247Z,10.54
2022-11-03T17:17:25.859Z,10.57
2022-11-03T17:19:52.478Z,10.63
2022-11-03T17:22:21.427Z,10.64
2022-11-03T17:24:48.513Z,10.70
2022-11-03T17:27:17.448Z,10.37
2022-11-03T17:29:48.383Z,10.15
2022-11-03T17:32:21.094Z,9.97
2022-11-03T17:34:48.917Z,9.92
2022-11-03T17:37:17.184Z,9.85
2022-11-03T17:39:46.504Z,9.82
2022-11-03T17:42:21.607Z,9.71
2022-11-03T17:51:59.531Z,9.51
2022-11-03T17:54:31.471Z,9.52
2022-11-03T17:57:08.916Z,9.48
2022-11-03T17:59:48.717Z,9.44
2022-11-03T18:02:31.744Z,9.45
2022-11-03T18:05:21.948Z,9.41
2022-11-03T18:08:33.766Z,9.37
2022-11-03T18:11:58.434Z,9.42
2022-11-03T18:14:28.254Z,9.41
2022-11-03T18:20:15.517Z,9.35
2022-11-03T18:23:03.341Z,9.39
2022-11-03T18:36:59.865Z,9.32
2022-11-03T18:40:02.210Z,9.30
2022-11-03T18:42:29.109Z,9.32
2022-11-03T18:45:01.454Z,9.29
2022-11-03T18:47:29.411Z,9.28
2022-11-03T18:49:56.038Z,9.28
2022-11-03T18:52:22.735Z,9.32
2022-11-03T18:54:53.879Z,9.25
2022-11-03T18:57:26.498Z,9.31
2022-11-03T18:59:53.120Z,9.25
2022-11-03T19:02:25.466Z,9.26
2022-11-03T19:04:52.230Z,9.22
2022-11-03T19:07:26.264Z,9.28
2022-11-03T19:09:53.114Z,9.31
2022-11-03T19:12:19.892Z,9.25
2022-11-03T19:14:48.061Z,9.26
2022-11-03T19:17:24.428Z,9.35
2022-11-03T19:19:54.592Z,9.33
2022-11-03T19:22:22.336Z,9.31
2022-11-03T19:24:49.151Z,9.32
2022-11-03T19:27:23.028Z,9.33
2022-11-03T19:29:49.702Z,9.32
2022-11-03T19:32:20.956Z,9.37
2022-11-03T19:34:52.470Z,9.36
2022-11-03T19:37:19.157Z,9.35
2022-11-03T19:39:45.786Z,9.36
2022-11-03T19:42:29.772Z,9.38
2022-11-03T19:45:07.725Z,9.34
2022-11-03T19:47:47.781Z,9.36
2022-11-03T19:50:22.005Z,9.35
2022-11-03T19:52:50.152Z,9.41
2022-11-03T19:55:18.081Z,9.43
2022-11-03T19:57:44.985Z,9.39
2022-11-03T20:00:17.581Z,9.34
2022-11-03T20:02:44.933Z,9.34
2022-11-03T20:06:41.880Z,9.33
2022-11-03T20:24:21.562Z,9.18
2022-11-03T20:27:00.222Z,9.16
2022-11-03T20:32:43.259Z,9.16
2022-11-03T20:35:45.805Z,9.12
2022-11-03T20:54:27.956Z,8.99
2022-11-03T21:38:36.947Z,8.67
2022-11-03T21:44:27.844Z,8.61
2022-11-03T21:55:37.477Z,8.54
2022-11-03T23:09:59.140Z,8.51
2022-11-03T23:21:13.843Z,8.57
2022-11-03T23:41:02.213Z,8.44
2022-11-03T23:48:09.697Z,8.38
